Time;durP1;ratioP1;P1;durP2;ratioP2;P2;SDS_P1;SDS_P2;PMS_P1;PMS_P2;Temp;Humidity;BMP_temperature;BMP_pressure;BME280_temperature;BME280_humidity;BME280_pressure;Samples;Min_cycle;Max_cycle;Signal;HPM_P1;HPM_P2
2021/12/12 00:00:57;;;;;;;29.48;6.90;;;;;;;11.46;100.00;-24137.22;5051269;28;20549;-75
2021/12/12 00:03:38;;;;;;;18.02;6.13;;;;;;;11.04;100.00;-24125.38;5052479;28;20201;-78
2021/12/12 00:06:12;;;;;;;29.15;6.70;;;;;;;11.26;100.00;-24131.59;5052589;28;20202;-75
2021/12/12 00:08:39;;;;;;;18.92;5.95;;;;;;;11.12;100.00;-24127.63;5053460;28;20159;-76
2021/12/12 00:11:08;;;;;;;20.80;7.30;;;;;;;11.22;100.00;-24130.47;5053243;28;20190;-76
2021/12/12 00:13:42;;;;;;;17.77;6.95;;;;;;;11.41;100.00;-24135.81;5050687;28;20174;-77
2021/12/12 00:16:08;;;;;;;21.75;7.40;;;;;;;10.98;100.00;-24123.69;5052657;28;20193;-75
2021/12/12 00:18:35;;;;;;;19.23;8.10;;;;;;;11.07;100.00;-24126.22;5051735;28;20182;-75
2021/12/12 00:21:01;;;;;;;22.33;7.70;;;;;;;11.26;100.00;-24131.59;5052829;28;20305;-76
2021/12/12 00:23:27;;;;;;;19.25;7.88;;;;;;;11.30;100.00;-24132.72;5051953;28;20700;-75
2021/12/12 00:25:54;;;;;;;25.50;7.70;;;;;;;10.80;100.00;-24118.63;5053427;28;20198;-78
2021/12/12 00:28:21;;;;;;;20.85;7.78;;;;;;;10.81;100.00;-24119.03;5052870;28;20209;-76
2021/12/12 00:30:50;;;;;;;21.88;7.43;;;;;;;11.15;100.00;-24128.34;5052695;28;20175;-76
2021/12/12 00:33:17;;;;;;;21.67;7.07;;;;;;;10.76;100.00;-24117.63;5044431;28;20178;-80
2021/12/12 00:35:43;;;;;;;19.63;6.70;;;;;;;11.01;100.00;-24124.53;5052310;28;20179;-80
2021/12/12 00:38:16;;;;;;;19.25;6.15;;;;;;;11.26;100.00;-24131.44;5053141;28;20208;-78
2021/12/12 00:40:47;;;;;;;17.77;6.55;;;;;;;11.01;100.00;-24124.53;5052863;28;20656;-78
2021/12/12 00:43:21;;;;;;;16.75;5.65;;;;;;;11.08;100.00;-24126.50;5050930;28;20226;-78
2021/12/12 00:45:46;;;;;;;20.65;5.70;;;;;;;11.03;100.00;-24125.25;5051294;28;20654;-80
2021/12/12 00:48:12;;;;;;;26.85;5.80;;;;;;;11.01;100.00;-24124.53;5050811;28;20265;-77
2021/12/12 00:50:40;;;;;;;15.45;6.05;;;;;;;11.04;100.00;-24125.38;5052147;28;20664;-78
2021/12/12 00:53:10;;;;;;;18.17;6.60;;;;;;;10.98;100.00;-24123.69;5050542;28;20178;-79
2021/12/12 00:55:38;;;;;;;18.52;6.03;;;;;;;11.01;100.00;-24124.53;5051941;28;20254;-76
2021/12/12 00:58:08;;;;;;;20.95;7.05;;;;;;;10.69;100.00;-24115.66;5050329;28;20190;-78
2021/12/12 01:00:42;;;;;;;20.33;7.10;;;;;;;10.86;100.00;-24120.44;5050359;28;20602;-78
2021/12/12 01:03:10;;;;;;;26.52;7.80;;;;;;;10.72;100.00;-24116.34;5050061;28;20204;-78
2021/12/12 01:05:37;;;;;;;16.65;7.53;;;;;;;10.67;100.00;-24114.94;5050015;28;20209;-76
2021/12/12 01:08:06;;;;;;;6.47;3.10;;;;;;;10.86;100.00;-24120.31;5051889;28;20201;-78
2021/12/12 01:10:38;;;;;;;9.57;4.47;;;;;;;10.62;100.00;-24113.81;5054931;28;20186;-77
2021/12/12 01:13:05;;;;;;;11.70;4.55;;;;;;;10.57;100.00;-24112.41;5055207;28;20186;-76
2021/12/12 01:15:40;;;;;;;12.88;5.40;;;;;;;11.03;100.00;-24125.09;5054354;28;20182;-79
2021/12/12 01:18:15;;;;;;;10.63;5.40;;;;;;;10.98;100.00;-24123.69;5055660;28;20186;-78
2021/12/12 01:21:12;;;;;;;7.28;3.50;;;;;;;10.97;100.00;-24123.53;5055865;28;20196;-78
2021/12/12 01:23:58;;;;;;;6.22;3.20;;;;;;;10.67;100.00;-24115.09;5035591;28;20194;-76
2021/12/12 01:26:28;;;;;;;3.97;2.67;;;;;;;10.48;100.00;-24109.88;5034495;28;20297;-77
2021/12/12 01:28:55;;;;;;;6.10;2.90;;;;;;;10.78;100.00;-24118.03;5034752;28;20198;-80
2021/12/12 01:31:25;;;;;;;6.35;2.72;;;;;;;10.72;100.00;-24116.50;4888193;28;21379;-77
2021/12/12 01:34:15;;;;;;;5.03;2.30;;;;;;;10.73;100.00;-24116.63;4510777;28;20827;-77
2021/12/12 01:37:05;;;;;;;5.80;2.67;;;;;;;10.60;100.00;-24113.25;4522637;28;20927;-78
2021/12/12 01:39:39;;;;;;;2.30;1.85;;;;;;;10.78;100.00;-24118.19;5001516;28;20208;-77
2021/12/12 01:42:07;;;;;;;3.80;2.30;;;;;;;10.55;100.00;-24111.84;5035679;28;20314;-78
2021/12/12 01:44:45;;;;;;;5.18;2.17;;;;;;;10.56;100.00;-24112.13;5043848;28;20206;-79
2021/12/12 01:47:24;;;;;;;2.97;2.00;;;;;;;11.00;100.00;-24124.25;5053381;28;20297;-77
2021/12/12 01:49:53;;;;;;;3.67;2.13;;;;;;;10.81;100.00;-24118.91;5054330;28;20186;-78
2021/12/12 01:52:22;;;;;;;3.47;2.00;;;;;;;11.00;100.00;-24124.25;5055358;28;20178;-77
2021/12/12 01:54:52;;;;;;;3.25;1.80;;;;;;;10.96;100.00;-24123.13;5053079;28;20347;-76
2021/12/12 01:57:22;;;;;;;4.53;1.70;;;;;;;10.92;100.00;-24122.13;5055122;28;20560;-76
2021/12/12 01:59:49;;;;;;;2.50;1.88;;;;;;;10.38;100.00;-24107.03;5054251;28;20183;-78
2021/12/12 02:02:28;;;;;;;1.83;1.42;;;;;;;10.32;100.00;-24105.22;5053876;28;20715;-77
2021/12/12 02:04:59;;;;;;;1.83;1.60;;;;;;;10.50;100.00;-24110.28;5054547;28;20171;-78
2021/12/12 02:07:31;;;;;;;2.13;1.50;;;;;;;10.49;100.00;-24110.00;5055123;28;20278;-78
2021/12/12 02:10:00;;;;;;;1.52;1.35;;;;;;;10.70;100.00;-24115.78;5055086;28;20170;-78
2021/12/12 02:12:27;;;;;;;4.15;1.60;;;;;;;10.78;100.00;-24118.19;5053267;28;20569;-78
2021/12/12 02:14:56;;;;;;;1.25;1.13;;;;;;;10.54;100.00;-24111.56;5055926;28;20544;-78
2021/12/12 02:17:32;;;;;;;2.45;1.35;;;;;;;10.93;100.00;-24122.28;5055358;28;20182;-76
2021/12/12 02:20:16;;;;;;;1.83;1.25;;;;;;;11.08;100.00;-24126.66;5053885;28;20653;-76
2021/12/12 02:22:57;;;;;;;2.10;1.40;;;;;;;10.88;100.00;-24121.00;5035243;28;20320;-79
2021/12/12 02:36:27;;;;;;;1.30;1.20;;;;;;;10.46;100.00;-24109.31;5055511;28;20178;-78
2021/12/12 02:38:54;;;;;;;2.67;1.40;;;;;;;10.62;100.00;-24113.81;5053366;28;20630;-78
2021/12/12 02:41:23;;;;;;;2.50;1.40;;;;;;;10.02;100.00;-24096.88;5054358;28;20179;-79
2021/12/12 02:43:56;;;;;;;1.70;1.48;;;;;;;10.12;100.00;-24099.69;5054413;28;20225;-78
2021/12/12 02:46:36;;;;;;;1.90;1.60;;;;;;;9.73;100.00;-24088.81;5054193;28;20198;-77
2021/12/12 02:49:22;;;;;;;4.20;2.40;;;;;;;10.36;100.00;-24106.47;5053286;28;20275;-77
2021/12/12 02:51:48;;;;;;;3.85;2.42;;;;;;;10.41;100.00;-24107.88;5054413;28;20220;-78
2021/12/12 02:54:13;;;;;;;4.43;2.13;;;;;;;10.29;100.00;-24104.50;5052769;28;20182;-78
2021/12/12 02:56:46;;;;;;;5.80;2.70;;;;;;;10.40;100.00;-24107.63;5052980;28;20178;-76
2021/12/12 02:59:39;;;;;;;3.55;1.70;;;;;;;10.44;100.00;-24108.75;5054487;28;20661;-78
2021/12/12 03:02:27;;;;;;;3.63;2.30;;;;;;;10.33;100.00;-24105.63;5055871;28;20182;-78
2021/12/12 03:04:59;;;;;;;7.68;2.78;;;;;;;9.88;100.00;-24092.91;5053103;28;20190;-80
2021/12/12 03:07:28;;;;;;;3.88;2.63;;;;;;;9.87;100.00;-24092.78;5033047;28;20273;-78
2021/12/12 03:09:56;;;;;;;7.45;3.50;;;;;;;9.56;100.00;-24084.03;5034021;28;20168;-78
2021/12/12 03:12:30;;;;;;;4.90;2.28;;;;;;;9.69;100.00;-24087.84;5039066;28;20313;-76
2021/12/12 03:14:58;;;;;;;6.10;2.70;;;;;;;9.38;100.00;-24079.06;5040196;28;20171;-76
2021/12/12 03:17:24;;;;;;;4.18;2.60;;;;;;;9.60;100.00;-24085.28;5041377;28;20175;-76
2021/12/12 03:19:53;;;;;;;3.63;2.30;;;;;;;9.47;100.00;-24081.63;5036349;28;20262;-79
2021/12/12 03:22:20;;;;;;;3.35;1.95;;;;;;;9.09;100.00;-24071.03;5039191;28;20167;-76
2021/12/12 03:24:46;;;;;;;4.18;2.17;;;;;;;9.19;100.00;-24073.72;5034389;28;20246;-78
2021/12/12 03:27:12;;;;;;;3.92;2.00;;;;;;;9.15;100.00;-24072.56;5033422;28;20226;-79
2021/12/12 03:29:39;;;;;;;6.63;2.60;;;;;;;9.11;100.00;-24071.44;5032054;28;20176;-79
2021/12/12 03:32:09;;;;;;;4.93;2.73;;;;;;;9.23;100.00;-24074.84;5032150;28;20606;-79
2021/12/12 03:34:38;;;;;;;7.10;2.50;;;;;;;8.75;100.00;-24061.53;5048991;28;20715;-77
2021/12/12 03:37:08;;;;;;;4.03;2.70;;;;;;;8.64;100.00;-24058.44;5052733;28;20175;-78
2021/12/12 03:39:37;;;;;;;3.13;2.70;;;;;;;8.62;100.00;-24057.72;5052798;28;20707;-76
2021/12/12 03:42:06;;;;;;;8.40;4.50;;;;;;;9.17;100.00;-24073.13;5052648;28;20231;-77
2021/12/12 03:44:35;;;;;;;10.27;5.00;;;;;;;8.90;100.00;-24065.50;5051301;28;20210;-78
2021/12/12 03:47:17;;;;;;;8.40;4.60;;;;;;;8.88;100.00;-24064.94;5053114;28;20309;-78
2021/12/12 03:49:42;;;;;;;9.00;4.97;;;;;;;8.47;100.00;-24053.63;5053344;28;20178;-76
2021/12/12 03:52:11;;;;;;;11.73;6.20;;;;;;;9.05;100.00;-24069.75;5052676;28;20653;-79
2021/12/12 03:54:38;;;;;;;6.67;4.97;;;;;;;8.84;100.00;-24063.94;5051300;28;20189;-77
2021/12/12 03:57:05;;;;;;;9.30;5.00;;;;;;;8.52;100.00;-24054.88;5051406;28;20186;-78
2021/12/12 03:59:33;;;;;;;10.17;5.50;;;;;;;8.95;100.00;-24066.91;5052694;28;20178;-78
2021/12/12 04:01:59;;;;;;;9.03;5.13;;;;;;;8.76;100.00;-24061.81;5051253;28;20187;-79
2021/12/12 04:04:31;;;;;;;7.93;4.17;;;;;;;8.58;100.00;-24056.72;5051434;28;20511;-78
2021/12/12 04:06:59;;;;;;;6.00;3.30;;;;;;;8.49;100.00;-24054.03;5046090;28;20214;-76
2021/12/12 04:09:26;;;;;;;4.67;3.87;;;;;;;8.24;100.00;-24047.09;5050958;28;20187;-78
2021/12/12 04:11:56;;;;;;;8.97;5.20;;;;;;;7.88;100.00;-24037.19;5051068;28;20206;-76
2021/12/12 04:14:23;;;;;;;15.03;7.87;;;;;;;7.74;100.00;-24033.22;5049308;28;20776;-79
2021/12/12 04:17:03;;;;;;;13.73;7.67;;;;;;;8.28;100.00;-24048.22;5051856;28;20228;-79
2021/12/12 04:19:29;;;;;;;20.80;10.23;;;;;;;8.07;100.00;-24042.28;5051351;28;20664;-78
2021/12/12 04:21:55;;;;;;;17.03;10.03;;;;;;;8.18;100.00;-24045.53;5050914;28;20183;-79
2021/12/12 04:24:24;;;;;;;21.73;9.00;;;;;;;8.52;100.00;-24054.88;5050654;28;21599;-79
2021/12/12 04:26:50;;;;;;;19.27;9.17;;;;;;;8.64;100.00;-24058.28;5049556;28;20206;-78
2021/12/12 04:29:28;;;;;;;13.70;7.97;;;;;;;8.34;100.00;-24049.94;5050818;28;20197;-77
2021/12/12 04:32:01;;;;;;;13.83;7.70;;;;;;;8.10;100.00;-24043.13;5050560;28;20562;-80
2021/12/12 04:34:31;;;;;;;12.30;7.77;;;;;;;8.07;100.00;-24042.28;5050938;28;20293;-78
2021/12/12 04:37:00;;;;;;;19.07;11.30;;;;;;;7.96;100.00;-24039.31;5050548;28;20630;-76
2021/12/12 04:39:30;;;;;;;22.90;12.17;;;;;;;8.50;100.00;-24054.31;5050762;28;20564;-78
2021/12/12 04:42:09;;;;;;;24.43;13.03;;;;;;;8.11;100.00;-24043.56;5051013;28;20233;-76
2021/12/12 04:44:37;;;;;;;28.03;13.37;;;;;;;7.97;100.00;-24039.59;5051460;28;20190;-77
2021/12/12 04:50:36;;;;;;;21.57;14.30;;;;;;;8.60;100.00;-24057.28;5047664;28;20264;-78
2021/12/12 04:53:16;;;;;;;16.83;11.90;;;;;;;8.39;100.00;-24051.50;5050478;28;20182;-77
2021/12/12 04:56:04;;;;;;;16.63;9.67;;;;;;;8.00;100.00;-24040.59;5051699;28;21506;-79
2021/12/12 04:58:43;;;;;;;11.67;6.67;;;;;;;8.22;100.00;-24046.53;5050391;28;20195;-77
2021/12/12 05:01:22;;;;;;;14.93;6.97;;;;;;;7.98;100.00;-24040.03;5048486;28;20198;-79
2021/12/12 05:04:06;;;;;;;13.27;7.00;;;;;;;7.82;100.00;-24035.47;5039434;28;20191;-79
2021/12/12 05:06:46;;;;;;;18.40;9.60;;;;;;;7.37;100.00;-24022.88;5047331;28;20281;-75
2021/12/12 05:09:50;;;;;;;21.93;9.57;;;;;;;7.41;100.00;-24024.00;5046849;28;20193;-78
2021/12/12 05:12:35;;;;;;;26.83;18.50;;;;;;;7.87;100.00;-24036.75;5046094;28;20197;-78
2021/12/12 05:15:11;;;;;;;32.70;21.10;;;;;;;7.55;100.00;-24027.97;5046580;28;20174;-78
2021/12/12 05:17:43;;;;;;;24.27;15.90;;;;;;;7.34;100.00;-24022.03;5042874;28;20216;-78
2021/12/12 05:20:32;;;;;;;25.70;16.87;;;;;;;7.35;100.00;-24022.31;5047736;28;20625;-76
2021/12/12 05:23:02;;;;;;;24.90;15.07;;;;;;;7.70;100.00;-24031.94;5050294;28;20654;-75
2021/12/12 05:25:52;;;;;;;25.40;14.87;;;;;;;7.62;100.00;-24029.69;5048604;28;20566;-78
2021/12/12 05:28:22;;;;;;;23.90;14.77;;;;;;;7.27;100.00;-24019.91;5048182;28;20189;-78
2021/12/12 05:30:48;;;;;;;20.60;13.83;;;;;;;7.92;100.00;-24038.31;5048519;28;20636;-79
2021/12/12 05:33:17;;;;;;;20.60;13.83;;;;;;;7.86;100.00;-24036.63;5048816;28;20278;-79
2021/12/12 05:35:44;;;;;;;23.83;13.73;;;;;;;7.43;100.00;-24024.56;5050138;28;20618;-78
2021/12/12 05:38:09;;;;;;;25.47;14.47;;;;;;;7.72;100.00;-24032.50;5050082;28;20270;-77
2021/12/12 05:40:38;;;;;;;23.03;14.63;;;;;;;7.62;100.00;-24029.69;5050016;28;20270;-76
2021/12/12 05:43:06;;;;;;;21.07;13.93;;;;;;;7.46;100.00;-24025.44;5046477;28;20223;-77
2021/12/12 05:45:34;;;;;;;34.40;20.87;;;;;;;7.68;100.00;-24031.53;5050506;28;20198;-76
2021/12/12 05:48:02;;;;;;;27.73;18.07;;;;;;;7.34;100.00;-24022.03;5050470;28;20312;-78
2021/12/12 05:50:29;;;;;;;18.73;10.37;;;;;;;7.49;100.00;-24026.28;5049853;28;21982;-79
2021/12/12 05:52:55;;;;;;;19.83;12.83;;;;;;;7.79;100.00;-24034.63;5049155;28;20179;-77
2021/12/12 05:55:24;;;;;;;21.73;14.10;;;;;;;7.42;100.00;-24024.16;5051367;28;20190;-77
2021/12/12 05:57:55;;;;;;;20.47;14.10;;;;;;;7.73;100.00;-24032.78;5054187;28;20174;-79
2021/12/12 06:00:27;;;;;;;17.60;10.10;;;;;;;7.16;100.00;-24016.78;5054855;28;20198;-73
2021/12/12 06:02:54;;;;;;;17.90;9.37;;;;;;;7.15;100.00;-24016.63;5052381;28;20186;-77
2021/12/12 06:05:21;;;;;;;16.93;8.40;;;;;;;7.38;100.00;-24023.16;5054777;28;20604;-76
2021/12/12 06:07:48;;;;;;;12.90;7.43;;;;;;;7.13;100.00;-24015.94;5054932;28;20182;-75
2021/12/12 06:10:16;;;;;;;15.80;8.43;;;;;;;7.23;100.00;-24018.75;5054434;28;20255;-79
2021/12/12 06:12:43;;;;;;;23.57;12.43;;;;;;;7.48;100.00;-24025.84;5053792;28;20225;-74
2021/12/12 06:15:16;;;;;;;13.03;6.57;;;;;;;7.47;100.00;-24025.56;5054783;28;20174;-74
2021/12/12 06:17:42;;;;;;;17.00;8.93;;;;;;;7.50;100.00;-24026.56;5054898;28;20202;-76
2021/12/12 06:20:11;;;;;;;12.50;9.30;;;;;;;7.49;100.00;-24026.28;5052863;28;20174;-75
2021/12/12 06:22:37;;;;;;;14.40;8.70;;;;;;;7.54;100.00;-24027.69;5054421;28;20177;-75
2021/12/12 06:25:05;;;;;;;15.40;10.10;;;;;;;7.84;100.00;-24036.06;5052309;28;20205;-75
2021/12/12 06:27:32;;;;;;;20.17;12.73;;;;;;;7.82;100.00;-24035.47;5054374;28;20202;-74
2021/12/12 06:29:57;;;;;;;17.23;11.80;;;;;;;7.82;100.00;-24035.47;5054413;28;20174;-74
2021/12/12 06:32:24;;;;;;;16.83;10.17;;;;;;;7.74;100.00;-24033.22;5053893;28;20175;-73
2021/12/12 06:34:54;;;;;;;15.70;8.90;;;;;;;7.61;100.00;-24029.53;5051583;28;20182;-74
2021/12/12 06:37:20;;;;;;;17.10;10.77;;;;;;;7.82;100.00;-24035.34;5052243;28;20630;-72
2021/12/12 06:39:46;;;;;;;14.77;8.70;;;;;;;7.93;100.00;-24038.47;5052077;28;20621;-73
2021/12/12 06:42:13;;;;;;;14.50;7.87;;;;;;;8.19;100.00;-24045.69;5052040;28;20222;-73
2021/12/12 06:44:40;;;;;;;12.87;8.20;;;;;;;8.17;100.00;-24045.13;5053458;28;20222;-71
2021/12/12 06:47:08;;;;;;;14.37;8.80;;;;;;;8.48;100.00;-24053.75;5051985;28;20241;-73
2021/12/12 06:49:35;;;;;;;13.10;9.37;;;;;;;8.56;100.00;-24056.16;5053262;28;20155;-72
2021/12/12 06:52:03;;;;;;;14.93;9.80;;;;;;;8.69;100.00;-24059.69;5052895;28;20668;-73
2021/12/12 06:54:30;;;;;;;15.80;10.70;;;;;;;8.93;100.00;-24066.34;5052096;28;20186;-72
2021/12/12 06:57:00;;;;;;;15.37;11.43;;;;;;;8.84;100.00;-24063.94;5051766;28;20259;-72
2021/12/12 06:59:30;;;;;;;15.73;10.50;;;;;;;8.45;100.00;-24052.91;5053468;28;20178;-72
2021/12/12 07:01:58;;;;;;;15.23;9.43;;;;;;;8.86;100.00;-24064.50;5053057;28;20174;-72
2021/12/12 07:04:26;;;;;;;10.97;7.23;;;;;;;8.73;100.00;-24060.84;5053085;28;20660;-71
2021/12/12 07:06:57;;;;;;;11.97;7.20;;;;;;;9.01;100.00;-24068.63;5050887;28;20226;-72
2021/12/12 07:09:25;;;;;;;10.10;6.80;;;;;;;8.90;100.00;-24065.50;5052302;28;20250;-72
2021/12/12 07:11:50;;;;;;;11.68;7.70;;;;;;;9.09;100.00;-24071.03;5052359;28;20278;-72
2021/12/12 07:14:16;;;;;;;12.30;8.43;;;;;;;8.98;100.00;-24067.75;5050458;28;20313;-73
2021/12/12 07:16:43;;;;;;;14.82;8.50;;;;;;;9.54;100.00;-24083.59;5050290;28;20638;-72
2021/12/12 07:19:09;;;;;;;16.48;12.25;;;;;;;9.52;100.00;-24082.91;5052910;28;20256;-72
2021/12/12 07:21:36;;;;;;;12.88;8.05;;;;;;;9.52;100.00;-24082.91;5052468;28;20210;-72
2021/12/12 07:24:04;;;;;;;12.52;8.73;;;;;;;9.73;100.00;-24088.97;5052804;28;20183;-71
2021/12/12 07:26:30;;;;;;;12.85;8.82;;;;;;;9.82;100.00;-24091.38;5052735;28;20696;-73
2021/12/12 07:29:00;;;;;;;16.17;8.80;;;;;;;9.49;100.00;-24082.19;5051949;28;20183;-71
2021/12/12 07:31:29;;;;;;;21.40;14.45;;;;;;;9.68;100.00;-24087.56;5052622;28;20244;-73
2021/12/12 07:33:58;;;;;;;112.15;42.97;;;;;;;9.77;100.00;-24089.94;5051785;28;20186;-72
2021/12/12 07:36:25;;;;;;;50.05;25.30;;;;;;;9.84;100.00;-24091.94;5051236;28;20246;-71
2021/12/12 07:39:00;;;;;;;30.08;17.20;;;;;;;10.07;100.00;-24098.28;5051236;28;20190;-73
2021/12/12 07:41:29;;;;;;;14.45;8.48;;;;;;;10.31;100.00;-24105.06;5051739;28;20186;-72
2021/12/12 07:43:57;;;;;;;10.32;6.40;;;;;;;10.44;100.00;-24108.59;5052307;28;20177;-71
2021/12/12 07:46:23;;;;;;;9.38;6.40;;;;;;;10.44;100.00;-24108.75;5050938;28;20558;-71
2021/12/12 07:48:51;;;;;;;10.63;7.30;;;;;;;10.33;100.00;-24105.63;5051054;28;20221;-72
2021/12/12 07:51:20;;;;;;;11.75;6.72;;;;;;;10.25;100.00;-24103.38;5049270;28;20190;-72
2021/12/12 07:53:49;;;;;;;9.23;6.07;;;;;;;10.89;100.00;-24121.28;5049789;28;20178;-72
2021/12/12 07:56:16;;;;;;;9.48;5.60;;;;;;;10.52;100.00;-24110.84;5050928;28;20646;-71
2021/12/12 07:58:42;;;;;;;13.68;8.95;;;;;;;10.98;100.00;-24123.69;5050076;28;20213;-73
2021/12/12 08:01:08;;;;;;;8.48;5.50;;;;;;;11.00;100.00;-24124.41;5051822;28;20235;-72
2021/12/12 08:03:36;;;;;;;10.23;5.93;;;;;;;10.95;100.00;-24123.00;5051826;28;20621;-71
2021/12/12 08:06:01;;;;;;;7.18;5.13;;;;;;;11.24;100.00;-24130.88;5050655;28;20688;-71
2021/12/12 08:08:28;;;;;;;6.38;4.05;;;;;;;10.99;100.00;-24124.13;5050081;28;20204;-72
2021/12/12 08:10:56;;;;;;;8.25;4.80;;;;;;;11.20;100.00;-24129.88;5050910;28;20175;-71
2021/12/12 08:13:21;;;;;;;6.68;3.90;;;;;;;11.06;100.00;-24125.94;5044176;28;20765;-72
2021/12/12 08:15:48;;;;;;;5.78;3.25;;;;;;;10.89;100.00;-24121.16;5051750;28;20281;-72
2021/12/12 08:18:20;;;;;;;6.55;4.18;;;;;;;11.19;100.00;-24129.59;5048825;28;20243;-72
2021/12/12 08:20:50;;;;;;;6.88;3.30;;;;;;;10.91;100.00;-24121.72;5047156;28;20175;-72
2021/12/12 08:23:18;;;;;;;7.15;4.53;;;;;;;11.22;100.00;-24130.47;5050553;28;20719;-72
2021/12/12 08:25:45;;;;;;;7.45;3.30;;;;;;;10.96;100.00;-24123.13;5051123;28;20288;-71
2021/12/12 08:28:12;;;;;;;5.70;3.38;;;;;;;10.84;100.00;-24119.75;5050139;28;20195;-71
2021/12/12 08:30:38;;;;;;;9.15;4.13;;;;;;;11.29;100.00;-24132.44;5050213;28;20179;-72
2021/12/12 08:33:07;;;;;;;6.65;3.33;;;;;;;10.89;100.00;-24121.16;5050873;28;20189;-72
2021/12/12 08:35:33;;;;;;;7.07;3.63;;;;;;;10.90;100.00;-24121.44;5049537;28;20174;-72
2021/12/12 08:38:01;;;;;;;8.35;4.03;;;;;;;10.68;100.00;-24115.22;5050728;28;20191;-71
2021/12/12 08:40:30;;;;;;;6.35;4.10;;;;;;;11.03;100.00;-24125.09;5050780;28;20181;-71
2021/12/12 08:42:56;;;;;;;8.68;5.60;;;;;;;10.70;100.00;-24115.78;5050969;28;20309;-71
2021/12/12 08:45:25;;;;;;;9.05;4.45;;;;;;;10.87;100.00;-24120.72;5049462;28;20192;-70
2021/12/12 08:47:54;;;;;;;7.78;3.97;;;;;;;10.95;100.00;-24122.84;5046173;28;20174;-71
2021/12/12 08:50:24;;;;;;;7.97;3.35;;;;;;;11.18;100.00;-24129.19;5051476;28;20190;-71
2021/12/12 08:52:50;;;;;;;6.20;3.53;;;;;;;11.06;100.00;-24126.09;5049312;28;20175;-72
2021/12/12 08:55:20;;;;;;;5.30;3.65;;;;;;;11.70;100.00;-24143.84;5051754;28;20220;-71
2021/12/12 08:57:59;;;;;;;6.20;4.13;;;;;;;11.72;100.00;-24144.25;5053495;28;20248;-71
2021/12/12 09:00:27;;;;;;;6.93;3.60;;;;;;;12.11;100.00;-24155.25;5054888;28;20201;-72
2021/12/12 09:02:54;;;;;;;5.60;3.50;;;;;;;12.05;100.00;-24153.56;5084406;28;20178;-72
2021/12/12 09:05:26;;;;;;;6.35;3.45;;;;;;;12.36;100.00;-24162.28;5049736;28;20171;-74
2021/12/12 09:07:57;;;;;;;5.90;3.63;;;;;;;12.65;100.00;-24170.31;5049543;28;20707;-71
2021/12/12 09:10:34;;;;;;;7.30;4.60;;;;;;;12.81;100.00;-24174.66;5049411;28;20448;-76
2021/12/12 09:13:06;;;;;;;8.50;4.75;;;;;;;12.93;100.00;-24178.03;5051223;28;20186;-79
2021/12/12 09:15:55;;;;;;;8.15;5.05;;;;;;;12.51;100.00;-24166.38;5049367;28;20720;-75
2021/12/12 09:18:29;;;;;;;11.02;5.30;;;;;;;12.77;100.00;-24173.53;5045099;28;20222;-73
2021/12/12 09:21:23;;;;;;;16.17;8.48;;;;;;;12.94;100.00;-24178.31;5050969;28;20170;-73
2021/12/12 09:24:06;;;;;;;12.70;6.45;;;;;;;13.10;100.00;-24182.81;5050463;28;20178;-74
2021/12/12 09:26:37;;;;;;;10.27;6.45;;;;;;;13.14;100.00;-24183.81;5051549;28;20206;-73
2021/12/12 09:29:12;;;;;;;7.72;5.82;;;;;;;13.13;100.00;-24183.66;5051052;28;20183;-75
2021/12/12 09:31:42;;;;;;;9.88;5.70;;;;;;;13.10;100.00;-24182.69;5054059;28;20196;-75
2021/12/12 09:34:16;;;;;;;10.88;5.57;;;;;;;12.95;100.00;-24178.59;5054866;28;20701;-74
2021/12/12 09:36:45;;;;;;;12.02;6.15;;;;;;;13.13;100.00;-24183.66;5053502;28;20657;-75
2021/12/12 09:39:18;;;;;;;10.45;5.70;;;;;;;12.95;100.00;-24178.47;5052473;28;20189;-74
2021/12/12 09:41:45;;;;;;;12.68;5.97;;;;;;;13.17;100.00;-24184.78;5053398;28;20318;-75
2021/12/12 09:44:29;;;;;;;10.15;6.40;;;;;;;13.28;100.00;-24187.75;5053798;28;20692;-75
2021/12/12 09:47:28;;;;;;;11.80;6.57;;;;;;;13.17;100.00;-24184.78;5052941;28;20234;-76
2021/12/12 09:53:28;;;;;;;10.60;5.68;;;;;;;13.57;100.00;-24195.75;5045223;28;20630;-74
2021/12/12 09:56:06;;;;;;;13.05;6.25;;;;;;;13.59;100.00;-24196.44;5053467;28;20182;-74
2021/12/12 09:58:59;;;;;;;9.90;5.82;;;;;;;13.45;100.00;-24192.38;5052291;28;20623;-75
2021/12/12 10:01:41;;;;;;;9.93;6.28;;;;;;;13.05;100.00;-24181.41;5051307;28;20221;-73
2021/12/12 10:04:09;;;;;;;14.73;8.50;;;;;;;13.44;100.00;-24192.09;5052860;28;20170;-74
2021/12/12 10:06:51;;;;;;;10.48;6.63;;;;;;;13.34;100.00;-24189.28;5053883;28;20267;-75
2021/12/12 10:09:30;;;;;;;14.25;7.03;;;;;;;13.13;100.00;-24183.66;5040060;28;20171;-75
2021/12/12 10:12:08;;;;;;;10.90;7.03;;;;;;;12.62;100.00;-24169.31;5054006;28;20184;-74
2021/12/12 10:14:47;;;;;;;13.18;6.70;;;;;;;13.09;100.00;-24182.53;5050045;28;20182;-76
2021/12/12 10:17:37;;;;;;;10.77;5.97;;;;;;;13.16;100.00;-24184.50;5044881;28;20194;-74
2021/12/12 10:20:08;;;;;;;11.90;7.25;;;;;;;12.98;100.00;-24179.44;5053891;28;20276;-74
2021/12/12 10:23:04;;;;;;;12.05;6.72;;;;;;;12.88;100.00;-24176.63;5085593;28;20220;-74
2021/12/12 10:26:04;;;;;;;9.83;5.60;;;;;;;13.11;100.00;-24183.09;5051556;28;20263;-73
2021/12/12 10:28:49;;;;;;;10.90;5.93;;;;;;;13.25;100.00;-24186.91;5041495;28;20190;-76
2021/12/12 10:31:24;;;;;;;10.10;6.03;;;;;;;13.13;100.00;-24183.66;5040998;28;20186;-69
2021/12/12 10:33:58;;;;;;;13.77;5.65;;;;;;;13.26;100.00;-24187.19;5051194;28;20574;-68
2021/12/12 10:36:57;;;;;;;12.45;6.00;;;;;;;13.35;100.00;-24189.56;5050405;28;20179;-77
2021/12/12 10:39:30;;;;;;;10.75;6.85;;;;;;;13.45;100.00;-24192.53;5051008;28;20210;-73
2021/12/12 10:42:01;;;;;;;15.63;6.70;;;;;;;13.14;100.00;-24183.81;5050095;28;20272;-71
2021/12/12 10:44:32;;;;;;;11.00;6.55;;;;;;;13.35;100.00;-24189.72;5044376;28;20236;-70
2021/12/12 10:47:19;;;;;;;11.00;6.30;;;;;;;13.52;100.00;-24194.34;5053373;28;20221;-70
2021/12/12 10:50:14;;;;;;;9.88;6.40;;;;;;;13.69;100.00;-24199.25;5054119;28;20175;-72
2021/12/12 10:53:02;;;;;;;17.45;6.15;;;;;;;13.62;100.00;-24197.28;5052334;28;20201;-72
2021/12/12 10:55:36;;;;;;;14.30;6.70;;;;;;;13.26;100.00;-24187.31;5052923;28;20329;-71
2021/12/12 10:58:34;;;;;;;13.20;6.80;;;;;;;13.63;100.00;-24197.56;5051278;28;20193;-69
2021/12/12 11:01:09;;;;;;;12.50;6.72;;;;;;;13.64;100.00;-24197.72;5051008;28;20295;-70
2021/12/12 11:03:44;;;;;;;12.80;6.80;;;;;;;13.27;100.00;-24187.47;5053439;28;20186;-69
2021/12/12 11:06:39;;;;;;;9.48;6.45;;;;;;;13.66;100.00;-24198.28;5052627;28;20288;-69
2021/12/12 11:09:13;;;;;;;14.60;6.20;;;;;;;13.59;100.00;-24196.44;5047966;28;20662;-69
2021/12/12 11:12:18;;;;;;;9.68;5.40;;;;;;;13.82;100.00;-24202.78;5051603;28;20560;-68
2021/12/12 11:15:11;;;;;;;8.90;5.28;;;;;;;13.54;100.00;-24195.03;5047931;28;20186;-68
2021/12/12 11:17:40;;;;;;;12.35;4.57;;;;;;;13.51;100.00;-24194.19;5057998;28;20731;-67
2021/12/12 11:20:19;;;;;;;10.48;5.90;;;;;;;12.94;100.00;-24178.19;5050745;28;20228;-67
2021/12/12 11:22:47;;;;;;;15.27;7.05;;;;;;;13.35;100.00;-24189.56;5052666;28;20277;-68
2021/12/12 11:25:29;;;;;;;11.27;7.55;;;;;;;13.01;100.00;-24180.16;5051221;28;20614;-72
2021/12/12 11:27:59;;;;;;;12.90;7.20;;;;;;;12.95;100.00;-24178.59;5052535;28;20206;-68
2021/12/12 11:30:34;;;;;;;15.55;8.52;;;;;;;12.63;100.00;-24169.75;5052478;28;20174;-69
2021/12/12 11:33:03;;;;;;;13.25;8.48;;;;;;;12.91;100.00;-24177.34;5052576;28;20708;-68
2021/12/12 11:35:29;;;;;;;14.65;9.63;;;;;;;12.61;100.00;-24169.19;5051051;28;20998;-69
2021/12/12 11:38:07;;;;;;;16.55;10.20;;;;;;;12.76;100.00;-24173.25;5052253;28;20185;-67
2021/12/12 11:40:46;;;;;;;14.15;8.02;;;;;;;12.61;100.00;-24169.19;5052710;28;20175;-69
2021/12/12 11:43:25;;;;;;;17.40;7.78;;;;;;;12.37;100.00;-24162.44;5052099;28;20292;-69
2021/12/12 11:45:57;;;;;;;11.80;6.32;;;;;;;12.76;100.00;-24173.25;5052448;28;20166;-70
2021/12/12 11:48:36;;;;;;;10.27;5.75;;;;;;;12.85;100.00;-24175.78;5051993;28;20194;-71
2021/12/12 11:51:10;;;;;;;8.45;5.22;;;;;;;12.78;100.00;-24173.81;5051110;28;20170;-68
2021/12/12 11:54:17;;;;;;;14.35;5.55;;;;;;;12.59;100.00;-24168.63;5051802;28;20621;-69
2021/12/12 11:56:49;;;;;;;10.85;6.18;;;;;;;12.84;100.00;-24175.50;5046574;28;20277;-69